createdAt,value
2022-09-01T00:00:49.376Z,19.20
2022-09-01T00:04:47.734Z,19.27
2022-09-01T00:08:44.864Z,19.23
2022-09-01T00:12:42.141Z,19.15
2022-09-01T00:16:39.635Z,18.95
2022-09-01T00:20:36.738Z,18.82
2022-09-01T00:24:33.813Z,18.88
2022-09-01T00:28:34.488Z,18.81
2022-09-01T00:32:31.492Z,18.62
2022-09-01T00:36:28.626Z,18.86
2022-09-01T00:40:26.071Z,18.25
2022-09-01T00:44:29.796Z,18.42
2022-09-01T00:48:28.414Z,18.69
2022-09-01T00:52:38.798Z,18.32
2022-09-01T00:56:40.722Z,18.44
2022-09-01T01:00:46.792Z,18.59
2022-09-01T01:04:44.149Z,18.42
2022-09-01T01:08:56.915Z,18.19
2022-09-01T01:12:54.123Z,18.22
2022-09-01T01:16:56.369Z,18.32
2022-09-01T01:21:29.257Z,18.29
2022-09-01T01:25:27.252Z,18.16
2022-09-01T01:29:25.113Z,17.86
2022-09-01T01:33:29.959Z,18.14
2022-09-01T01:37:27.658Z,17.87
2022-09-01T01:41:24.853Z,17.95
2022-09-01T01:45:25.496Z,17.75
2022-09-01T01:49:29.222Z,18.02
2022-09-01T01:53:26.382Z,18.04
2022-09-01T01:57:23.474Z,18.03
2022-09-01T02:01:25.509Z,17.88
2022-09-01T02:05:33.253Z,18.00
2022-09-01T02:09:30.283Z,17.87
2022-09-01T02:13:31.423Z,17.69
2022-09-01T02:17:29.118Z,17.44
2022-09-01T02:21:28.629Z,17.62
2022-09-01T02:25:27.612Z,17.62
2022-09-01T02:29:26.643Z,17.45
2022-09-01T02:33:25.457Z,17.45
2022-09-01T02:37:25.550Z,17.54
2022-09-01T02:41:23.976Z,17.66
2022-09-01T02:45:22.230Z,17.46
2022-09-01T02:49:25.923Z,17.28
2022-09-01T02:53:23.519Z,17.68
2022-09-01T02:57:24.551Z,17.61
2022-09-01T03:01:31.485Z,17.29
2022-09-01T03:05:32.662Z,17.05
2022-09-01T03:09:30.210Z,16.87
2022-09-01T03:13:29.270Z,16.77
2022-09-01T03:17:27.151Z,16.51
2022-09-01T03:21:24.265Z,16.44
2022-09-01T03:25:25.165Z,16.35
2022-09-01T03:29:23.030Z,16.26
2022-09-01T03:33:22.887Z,16.20
2022-09-01T03:37:21.034Z,15.98
2022-09-01T03:41:22.753Z,16.08
2022-09-01T03:45:20.745Z,15.94
2022-09-01T03:49:27.911Z,15.89
2022-09-01T03:53:28.006Z,15.70
2022-09-01T03:57:29.116Z,15.49
2022-09-01T04:01:39.845Z,15.64
2022-09-01T04:05:44.461Z,15.56
2022-09-01T04:09:42.552Z,15.53
2022-09-01T04:13:42.782Z,15.17
2022-09-01T04:17:59.898Z,15.42
2022-09-01T04:22:00.795Z,15.35
2022-09-01T04:26:14.720Z,15.39
2022-09-01T04:30:14.699Z,15.39
2022-09-01T04:34:16.409Z,15.18
2022-09-01T04:38:16.191Z,15.45
2022-09-01T04:42:16.364Z,15.43
2022-09-01T04:46:21.257Z,15.36
2022-09-01T04:50:18.999Z,15.59
2022-09-01T04:54:38.982Z,15.41
2022-09-01T04:58:38.637Z,15.38
2022-09-01T05:02:35.620Z,15.37
2022-09-01T05:06:34.024Z,15.64
2022-09-01T05:10:34.744Z,15.53
2022-09-01T05:14:48.815Z,15.51
2022-09-01T05:18:50.644Z,15.54
2022-09-01T05:22:47.995Z,15.50
2022-09-01T05:26:47.562Z,15.61
2022-09-01T05:30:48.498Z,15.68
2022-09-01T05:34:46.236Z,15.75
2022-09-01T05:38:45.543Z,15.66
2022-09-01T05:42:44.488Z,15.76
2022-09-01T05:46:42.701Z,15.86
2022-09-01T05:50:43.017Z,16.01
2022-09-01T05:54:41.491Z,16.16
2022-09-01T06:02:58.213Z,16.46
2022-09-01T06:07:07.187Z,16.60
2022-09-01T06:11:12.656Z,17.00
2022-09-01T06:15:18.389Z,17.37
2022-09-01T06:19:21.088Z,17.65
2022-09-01T06:23:18.754Z,17.93
2022-09-01T06:27:18.302Z,17.86
2022-09-01T06:31:15.572Z,18.00
2022-09-01T06:35:18.341Z,18.03
2022-09-01T06:39:22.497Z,17.97
2022-09-01T06:43:23.453Z,17.82
2022-09-01T06:47:21.327Z,18.16
2022-09-01T06:51:22.745Z,17.98
2022-09-01T06:55:23.148Z,18.12
2022-09-01T06:59:21.050Z,18.00
2022-09-01T07:03:19.640Z,18.02
2022-09-01T07:12:27.690Z,18.31
2022-09-01T07:16:34.626Z,18.29
2022-09-01T07:21:03.073Z,18.48
2022-09-01T07:29:39.555Z,18.96
2022-09-01T07:33:41.984Z,18.89
2022-09-01T07:46:38.467Z,19.75
2022-09-01T07:55:05.870Z,19.92
2022-09-01T07:59:03.248Z,20.34
2022-09-01T08:03:01.427Z,20.67
2022-09-01T08:06:58.666Z,20.90
2022-09-01T08:11:05.628Z,21.46
2022-09-01T08:15:41.527Z,22.45
2022-09-01T08:19:25.452Z,23.20
2022-09-01T08:23:49.076Z,23.21
2022-09-01T08:27:46.970Z,23.41
2022-09-01T08:31:46.953Z,24.15
2022-09-01T08:35:49.079Z,24.16
2022-09-01T08:39:48.501Z,24.27
2022-09-01T08:44:16.731Z,23.93
2022-09-01T08:53:42.674Z,24.97
2022-09-01T08:57:45.319Z,25.20
2022-09-01T09:01:55.911Z,25.53
2022-09-01T09:06:13.730Z,25.82
2022-09-01T09:10:37.438Z,25.41
2022-09-01T09:14:52.793Z,25.41
2022-09-01T09:19:06.605Z,24.55
2022-09-01T09:23:22.020Z,25.16
2022-09-01T09:27:32.131Z,26.96
2022-09-01T09:31:45.824Z,27.00
2022-09-01T09:35:47.349Z,27.70
2022-09-01T09:39:44.788Z,27.68
2022-09-01T09:44:00.209Z,27.30
2022-09-01T09:47:58.464Z,26.48
2022-09-01T09:52:16.443Z,25.77
2022-09-01T09:56:24.351Z,25.37
2022-09-01T10:00:29.096Z,25.14
2022-09-01T10:04:39.067Z,25.29
2022-09-01T10:08:45.719Z,25.11
2022-09-01T10:12:43.026Z,25.27
2022-09-01T10:16:42.913Z,24.80
2022-09-01T10:21:26.084Z,23.88
2022-09-01T10:25:32.240Z,23.02
2022-09-01T10:29:50.583Z,22.66
2022-09-01T10:33:49.634Z,23.21
2022-09-01T10:37:50.471Z,23.23
2022-09-01T10:41:59.715Z,23.14
2022-09-01T10:46:05.342Z,23.69
2022-09-01T10:50:24.615Z,24.30
2022-09-01T10:54:50.787Z,25.82
2022-09-01T11:03:42.134Z,27.45
2022-09-01T11:08:09.061Z,27.22
2022-09-01T11:12:29.844Z,27.50
2022-09-01T11:16:50.121Z,26.96
2022-09-01T11:20:47.734Z,27.03
2022-09-01T11:25:00.187Z,27.19
2022-09-01T11:28:59.581Z,27.69
2022-09-01T11:33:24.173Z,28.01
2022-09-01T11:37:27.610Z,27.70
2022-09-01T11:41:46.474Z,28.77
2022-09-01T11:46:22.675Z,30.58
2022-09-01T11:50:27.036Z,33.62
2022-09-01T11:54:25.556Z,36.53
2022-09-01T11:58:29.079Z,38.03
2022-09-01T12:02:36.697Z,34.41
2022-09-01T12:06:35.061Z,34.92
2022-09-01T12:10:38.546Z,36.09
2022-09-01T12:15:01.929Z,35.12
2022-09-01T12:18:56.724Z,32.75
2022-09-01T12:22:54.091Z,29.81
2022-09-01T12:26:55.899Z,29.54
2022-09-01T12:30:55.546Z,29.29
2022-09-01T12:35:13.687Z,28.96
2022-09-01T12:39:25.085Z,28.32
2022-09-01T12:43:39.947Z,28.16
2022-09-01T12:47:37.159Z,28.13
2022-09-01T12:51:35.358Z,27.46
2022-09-01T12:55:52.058Z,27.10
2022-09-01T12:59:49.128Z,27.07
2022-09-01T13:04:16.157Z,27.08
2022-09-01T13:08:18.465Z,27.45
2022-09-01T13:12:21.698Z,27.76
2022-09-01T13:16:18.779Z,28.10
2022-09-01T13:20:16.612Z,28.11
2022-09-01T13:24:14.679Z,28.74
2022-09-01T13:28:13.698Z,28.82
2022-09-01T13:32:19.635Z,29.28
2022-09-01T13:40:35.160Z,29.80
2022-09-01T13:44:32.188Z,29.25
2022-09-01T13:49:02.320Z,29.34
2022-09-01T13:52:55.164Z,29.47
2022-09-01T13:56:52.477Z,28.63
2022-09-01T14:00:51.044Z,28.50
2022-09-01T14:04:48.284Z,28.46
2022-09-01T14:08:45.353Z,28.28
2022-09-01T14:12:43.251Z,28.43
2022-09-01T14:16:40.417Z,27.51
2022-09-01T14:20:42.511Z,28.14
2022-09-01T14:24:40.935Z,28.16
2022-09-01T14:28:40.088Z,28.48
2022-09-01T14:32:37.205Z,28.93
2022-09-01T14:36:34.888Z,29.23
2022-09-01T14:40:32.009Z,29.53
2022-09-01T14:44:29.146Z,30.84
2022-09-01T14:48:26.103Z,31.82
2022-09-01T14:52:23.100Z,32.17
2022-09-01T14:56:21.756Z,32.24
2022-09-01T15:00:20.010Z,32.05
2022-09-01T15:04:17.136Z,29.21
2022-09-01T15:08:17.855Z,29.68
2022-09-01T15:12:15.019Z,29.74
2022-09-01T15:16:25.599Z,30.71
2022-09-01T15:20:42.622Z,30.05
2022-09-01T15:24:39.723Z,31.56
2022-09-01T15:28:36.831Z,31.00
2022-09-01T15:32:33.959Z,29.73
2022-09-01T15:36:35.579Z,29.23
2022-09-01T15:40:33.548Z,28.58
2022-09-01T15:44:31.203Z,27.96
2022-09-01T15:48:29.818Z,27.54
2022-09-01T15:52:28.400Z,27.36
2022-09-01T15:56:26.120Z,27.07
2022-09-01T16:00:29.735Z,26.97
2022-09-01T16:04:27.894Z,26.44
2022-09-01T16:08:25.166Z,26.25
2022-09-01T16:12:22.247Z,25.96
2022-09-01T16:16:51.993Z,25.78
2022-09-01T16:21:35.439Z,25.63
2022-09-01T16:25:34.773Z,25.71
2022-09-01T16:30:04.307Z,26.62
2022-09-01T16:34:13.184Z,27.14
2022-09-01T16:38:40.351Z,27.44
2022-09-01T16:42:58.000Z,27.39
2022-09-01T16:47:16.532Z,27.80
2022-09-01T16:51:52.869Z,26.01
2022-09-01T16:56:01.734Z,25.32
2022-09-01T17:00:08.489Z,25.10
2022-09-01T17:04:12.073Z,25.37
2022-09-01T17:08:23.345Z,25.55
2022-09-01T17:12:33.384Z,25.46
2022-09-01T17:16:38.150Z,25.26
2022-09-01T17:20:41.166Z,25.12
2022-09-01T17:24:56.908Z,25.03
2022-09-01T17:29:13.241Z,24.96
2022-09-01T17:33:17.272Z,25.01
2022-09-01T17:37:32.786Z,24.53
2022-09-01T17:41:52.905Z,23.77
2022-09-01T17:46:20.875Z,23.43
2022-09-01T17:51:01.161Z,23.07
2022-09-01T17:55:28.199Z,22.52
2022-09-01T18:00:05.108Z,22.08
2022-09-01T18:04:42.339Z,21.86
2022-09-01T18:08:47.971Z,21.47
2022-09-01T18:12:52.462Z,21.07
2022-09-01T18:16:49.476Z,21.04
2022-09-01T18:20:49.594Z,20.69
2022-09-01T18:25:03.947Z,20.50
2022-09-01T18:29:05.220Z,20.23
2022-09-01T18:34:03.416Z,19.87
2022-09-01T18:38:20.812Z,19.59
2022-09-01T18:42:49.094Z,19.28
2022-09-01T18:47:09.628Z,19.42
2022-09-01T18:51:16.926Z,19.20
2022-09-01T18:55:43.751Z,19.03
2022-09-01T19:00:18.207Z,19.10
2022-09-01T19:04:31.810Z,19.15
2022-09-01T19:09:16.164Z,18.87
2022-09-01T19:14:03.383Z,18.74
2022-09-01T19:18:13.921Z,18.57
2022-09-01T19:22:30.269Z,18.45
2022-09-01T19:26:32.138Z,18.42
2022-09-01T19:30:29.984Z,18.06
2022-09-01T19:34:36.509Z,18.28
2022-09-01T19:38:33.670Z,17.84
2022-09-01T19:42:38.809Z,17.86
2022-09-01T19:46:43.339Z,17.74
2022-09-01T19:50:59.552Z,17.80
2022-09-01T19:55:04.004Z,17.41
2022-09-01T19:59:55.786Z,17.56
2022-09-01T20:04:15.058Z,17.33
2022-09-01T20:08:25.836Z,17.39
2022-09-01T20:12:40.147Z,17.43
2022-09-01T20:16:44.528Z,17.14
2022-09-01T20:20:48.944Z,17.18
2022-09-01T20:24:47.305Z,16.99
2022-09-01T20:28:53.767Z,16.74
2022-09-01T20:33:18.912Z,16.87
2022-09-01T20:37:27.195Z,16.66
2022-09-01T20:42:09.391Z,16.66
2022-09-01T20:46:06.670Z,16.48
2022-09-01T20:50:13.448Z,16.43
2022-09-01T20:54:40.730Z,16.32
2022-09-01T20:58:45.270Z,16.42
2022-09-01T21:03:33.585Z,16.51
2022-09-01T21:07:56.451Z,16.58
2022-09-01T21:12:35.150Z,16.51
2022-09-01T21:16:56.304Z,16.16
2022-09-01T21:21:08.269Z,16.15
2022-09-01T21:25:06.149Z,16.09
2022-09-01T21:29:43.811Z,16.04
2022-09-01T21:33:40.802Z,15.80
2022-09-01T21:37:38.365Z,15.53
2022-09-01T21:41:35.464Z,15.17
2022-09-01T21:45:36.732Z,15.24
2022-09-01T21:49:33.847Z,15.17
2022-09-01T21:53:32.658Z,15.31
2022-09-01T21:57:29.686Z,15.49
2022-09-01T22:01:31.340Z,15.27
2022-09-01T22:05:33.296Z,15.36
2022-09-01T22:09:30.692Z,15.29
2022-09-01T22:13:28.074Z,15.33
2022-09-01T22:17:25.315Z,14.88
2022-09-01T22:21:22.792Z,14.84
2022-09-01T22:25:24.039Z,14.76
2022-09-01T22:29:21.092Z,14.45
2022-09-01T22:33:20.595Z,14.78
2022-09-01T22:37:18.839Z,14.55
2022-09-01T22:41:23.167Z,14.70
2022-09-01T22:45:20.234Z,14.67
2022-09-01T22:49:17.639Z,14.48
2022-09-01T22:53:16.566Z,14.59
2022-09-01T22:57:14.532Z,14.38
2022-09-01T23:01:16.721Z,14.23
2022-09-01T23:05:14.060Z,14.48
2022-09-01T23:09:14.064Z,14.35
2022-09-01T23:13:11.152Z,14.37
2022-09-01T23:17:08.496Z,14.38
2022-09-01T23:21:08.039Z,14.59
2022-09-01T23:25:06.657Z,14.43
2022-09-01T23:29:05.660Z,14.41
2022-09-01T23:33:03.013Z,14.08
2022-09-01T23:37:00.009Z,14.12
2022-09-01T23:40:58.630Z,14.13
2022-09-01T23:44:55.614Z,14.12
2022-09-01T23:48:53.733Z,14.06
2022-09-01T23:52:51.018Z,13.98
2022-09-01T23:56:48.288Z,13.96
